Appleton, Minnesota
Current Conditions -  °F | °C
As of 3:15 AM on Friday 31 Oct 2014 (Local Time) from KAQP Reporting Station
Clear Clear  
Wind Chill: 15°   Ceiling: Unl
Heat Index: 25°   Visibility: 10mi
Dew Point: 21°   Wind: 9mph
Humidity: 86%   Direction: 330°NNW
Pressure: 30.55"   Gusts: NA
Location:  45.2°N, 96.02°W
Report Text: KAQP 310815Z AUTO 33008KT 10SM CLR M04/M06 A3055 RMK AO2
Loading
Personal Weather Stations






























Interactive Weather Map
Tropical Storm Tracking
New forecast layout! Learn more

10-Day Weather Forecast

Advertisements
Track Severe Weather on mobile